createdAt,value
2018-02-03T00:02:05.253Z,96993.80
2018-02-03T00:04:33.546Z,96998.31
2018-02-03T00:07:01.823Z,96992.28
2018-02-03T00:09:31.063Z,96996.32
2018-02-03T00:11:59.355Z,96990.33
2018-02-03T00:14:28.158Z,96993.56
2018-02-03T00:16:56.443Z,96994.98
2018-02-03T00:19:24.704Z,96986.48
2018-02-03T00:21:53.739Z,96997.77
2018-02-03T00:24:21.992Z,96995.52
2018-02-03T00:26:50.273Z,96997.37
2018-02-03T00:29:18.535Z,96991.50
2018-02-03T00:31:46.849Z,96986.95
2018-02-03T00:34:15.139Z,96979.64
2018-02-03T00:36:43.422Z,96978.86
2018-02-03T00:39:11.671Z,96975.73
2018-02-03T00:41:39.928Z,96974.89
2018-02-03T00:44:08.967Z,96972.88
2018-02-03T00:46:37.224Z,96970.81
2018-02-03T00:49:06.265Z,96966.06
2018-02-03T00:51:34.513Z,96966.50
2018-02-03T00:54:03.572Z,96967.59
2018-02-03T00:56:33.996Z,96966.14
2018-02-03T00:59:02.287Z,96969.81
2018-02-03T01:01:31.510Z,96971.19
2018-02-03T01:03:59.870Z,96970.82
2018-02-03T01:06:28.191Z,96981.20
2018-02-03T01:08:56.479Z,96978.13
2018-02-03T01:11:24.787Z,96979.17
2018-02-03T01:13:53.064Z,96976.14
2018-02-03T01:16:21.314Z,96977.08
2018-02-03T01:18:49.573Z,96967.63
2018-02-03T01:21:18.606Z,96966.87
2018-02-03T01:23:47.658Z,96972.05
2018-02-03T01:26:15.920Z,96965.66
2018-02-03T01:28:44.297Z,96970.58
2018-02-03T01:31:12.540Z,96969.23
2018-02-03T01:33:41.583Z,96972.30
2018-02-03T01:36:10.616Z,96971.59
2018-02-03T01:38:39.823Z,96968.31
2018-02-03T01:41:08.123Z,96968.04
2018-02-03T01:43:36.401Z,96956.41
2018-02-03T01:46:04.711Z,96952.42
2018-02-03T01:48:33.030Z,96954.67
2018-02-03T01:51:01.341Z,96951.16
2018-02-03T01:53:30.510Z,96949.14
2018-02-03T01:55:58.803Z,96942.98
2018-02-03T01:58:27.095Z,96943.23
2018-02-03T02:00:56.178Z,96945.37
2018-02-03T02:03:24.433Z,96932.91
2018-02-03T02:05:53.457Z,96941.02
2018-02-03T02:08:21.736Z,96934.97
2018-02-03T02:10:49.996Z,96933.06
2018-02-03T02:13:19.886Z,96926.03
2018-02-03T02:15:48.223Z,96937.42
2018-02-03T02:18:17.278Z,96937.15
2018-02-03T02:20:45.563Z,96928.13
2018-02-03T02:23:13.819Z,96941.25
2018-02-03T02:25:42.088Z,96933.18
2018-02-03T02:28:10.343Z,96931.94
2018-02-03T02:30:38.620Z,96932.95
2018-02-03T02:33:06.901Z,96923.59
2018-02-03T02:35:35.176Z,96929.07
2018-02-03T02:38:03.431Z,96927.58
2018-02-03T02:40:31.800Z,96923.03
2018-02-03T02:43:00.118Z,96922.53
2018-02-03T02:45:28.458Z,96924.34
2018-02-03T02:47:56.725Z,96918.59
2018-02-03T02:50:25.048Z,96911.72
2018-02-03T02:52:53.289Z,96921.19
2018-02-03T02:55:22.320Z,96921.05
2018-02-03T02:57:50.588Z,96925.86
2018-02-03T03:00:19.636Z,96915.95
2018-02-03T03:02:48.015Z,96922.56
2018-02-03T03:05:16.307Z,96915.19
2018-02-03T03:07:44.579Z,96908.62
2018-02-03T03:10:12.855Z,96909.99
2018-02-03T03:12:41.891Z,96909.89
2018-02-03T03:15:10.165Z,96912.90
2018-02-03T03:17:38.442Z,96912.02
2018-02-03T03:20:06.718Z,96906.98
2018-02-03T03:22:34.999Z,96913.54
2018-02-03T03:25:03.310Z,96898.28
2018-02-03T03:27:32.394Z,96894.85
2018-02-03T03:30:01.735Z,96896.57
2018-02-03T03:32:30.081Z,96901.13
2018-02-03T03:34:59.307Z,96897.50
2018-02-03T03:37:27.666Z,96903.86
2018-02-03T03:39:55.936Z,96894.62
2018-02-03T03:42:24.176Z,96906.48
2018-02-03T03:44:52.455Z,96900.70
2018-02-03T03:47:20.703Z,96902.97
2018-02-03T03:49:48.989Z,96903.25
2018-02-03T03:52:17.277Z,96907.18
2018-02-03T03:54:45.587Z,96905.99
2018-02-03T03:57:13.865Z,96908.27
2018-02-03T03:59:42.111Z,96905.36
2018-02-03T04:02:11.143Z,96907.52
2018-02-03T04:04:39.405Z,96909.31
2018-02-03T04:07:07.659Z,96904.44
2018-02-03T04:09:35.920Z,96912.86
2018-02-03T04:12:04.183Z,96907.52
2018-02-03T04:14:33.208Z,96902.49
2018-02-03T04:17:01.547Z,96905.42
2018-02-03T04:19:29.909Z,96899.95
2018-02-03T04:21:58.215Z,96904.05
2018-02-03T04:24:26.494Z,96901.16
2018-02-03T04:26:54.756Z,96909.69
2018-02-03T04:29:23.014Z,96902.88
2018-02-03T04:31:51.277Z,96909.20
2018-02-03T04:34:20.292Z,96913.05
2018-02-03T04:36:48.567Z,96908.63
2018-02-03T04:39:17.871Z,96912.01
2018-02-03T04:41:46.222Z,96922.45
2018-02-03T04:44:15.260Z,96918.56
2018-02-03T04:46:43.559Z,96910.16
2018-02-03T04:49:11.831Z,96916.06
2018-02-03T04:51:40.092Z,96916.72
2018-02-03T04:54:08.352Z,96915.56
2018-02-03T04:56:36.660Z,96912.36
2018-02-03T04:59:05.667Z,96921.52
2018-02-03T05:01:33.939Z,96908.34
2018-02-03T05:04:02.220Z,96908.22
2018-02-03T05:06:30.529Z,96910.80
2018-02-03T05:08:58.825Z,96906.66
2018-02-03T05:11:27.168Z,96907.19
2018-02-03T05:13:55.472Z,96907.39
2018-02-03T05:16:24.545Z,96916.77
2018-02-03T05:18:52.831Z,96913.09
2018-02-03T05:21:21.072Z,96914.47
2018-02-03T05:23:49.354Z,96907.01
2018-02-03T05:26:17.622Z,96902.88
2018-02-03T05:28:45.941Z,96914.69
2018-02-03T05:31:14.202Z,96910.98
2018-02-03T05:33:42.464Z,96914.42
2018-02-03T05:36:11.492Z,96920.59
2018-02-03T05:38:39.771Z,96920.12
2018-02-03T05:41:08.020Z,96917.50
2018-02-03T05:43:38.879Z,96922.64
2018-02-03T05:46:08.404Z,96913.11
2018-02-03T05:48:36.664Z,96920.70
2018-02-03T05:51:04.964Z,96921.56
2018-02-03T05:53:33.199Z,96915.11
2018-02-03T05:56:01.504Z,96916.55
2018-02-03T05:58:29.830Z,96909.27
2018-02-03T06:00:59.916Z,96916.52
2018-02-03T06:03:28.297Z,96910.40
2018-02-03T06:05:56.556Z,96906.90
2018-02-03T06:08:25.595Z,96903.88
2018-02-03T06:10:53.848Z,96908.70
2018-02-03T06:13:22.893Z,96900.14
2018-02-03T06:15:51.168Z,96904.19
2018-02-03T06:18:19.427Z,96912.30
2018-02-03T06:20:48.460Z,96912.75
2018-02-03T06:23:16.792Z,96912.22
2018-02-03T06:25:45.076Z,96917.31
2018-02-03T06:28:14.112Z,96919.63
2018-02-03T06:30:42.359Z,96922.08
2018-02-03T06:33:10.623Z,96926.84
2018-02-03T06:35:38.883Z,96926.16
2018-02-03T06:38:07.906Z,96909.91
2018-02-03T06:40:36.164Z,96914.41
2018-02-03T06:43:04.432Z,96909.91
2018-02-03T06:45:32.680Z,96916.52
2018-02-03T06:48:00.957Z,96916.68
2018-02-03T06:50:30.013Z,96914.95
2018-02-03T06:52:59.061Z,96915.76
2018-02-03T06:55:28.124Z,96920.99
2018-02-03T06:57:56.378Z,96921.06
2018-02-03T07:00:24.650Z,96912.70
2018-02-03T07:02:53.663Z,96918.62
2018-02-03T07:05:22.706Z,96911.42
2018-02-03T07:07:50.966Z,96912.06
2018-02-03T07:10:19.215Z,96903.62
2018-02-03T07:12:48.259Z,96901.38
2018-02-03T07:15:16.549Z,96903.45
2018-02-03T07:17:44.795Z,96900.14
2018-02-03T07:20:13.060Z,96896.45
2018-02-03T07:22:41.316Z,96898.41
2018-02-03T07:25:09.580Z,96909.91
2018-02-03T07:27:38.634Z,96906.61
2018-02-03T07:30:06.920Z,96913.05
2018-02-03T07:32:35.192Z,96914.03
2018-02-03T07:35:03.626Z,96914.03
2018-02-03T07:37:32.112Z,96919.75
2018-02-03T07:40:01.139Z,96922.53
2018-02-03T07:42:29.404Z,96924.80
2018-02-03T07:44:58.458Z,96924.67
2018-02-03T07:47:27.490Z,96923.28
2018-02-03T07:49:55.764Z,96925.00
2018-02-03T07:52:25.213Z,96919.69
2018-02-03T07:54:53.929Z,96919.56
2018-02-03T07:57:22.626Z,96927.00
2018-02-03T07:59:51.143Z,96928.11
2018-02-03T08:02:19.922Z,96926.16
2018-02-03T08:04:49.077Z,96933.31
2018-02-03T08:07:18.229Z,96933.03
2018-02-03T08:09:47.039Z,96935.83
2018-02-03T08:12:15.462Z,96929.33
2018-02-03T08:14:44.917Z,96929.20
2018-02-03T08:17:13.957Z,96935.63
2018-02-03T08:19:43.728Z,96933.07
2018-02-03T08:22:13.080Z,96932.09
2018-02-03T08:24:41.513Z,96934.75
2018-02-03T08:27:09.908Z,96933.91
2018-02-03T08:29:38.307Z,96938.39
2018-02-03T08:32:07.810Z,96941.02
2018-02-03T08:34:36.549Z,96945.13
2018-02-03T08:37:05.336Z,96938.66
2018-02-03T08:39:35.335Z,96949.84
2018-02-03T08:42:05.348Z,96936.23
2018-02-03T08:44:34.953Z,96941.20
2018-02-03T08:47:03.623Z,96931.79
2018-02-03T08:49:31.998Z,96918.16
2018-02-03T08:52:00.631Z,96924.69
2018-02-03T08:54:29.407Z,96913.64
2018-02-03T08:56:59.120Z,96908.14
2018-02-03T08:59:28.638Z,96925.85
2018-02-03T09:01:57.262Z,96912.50
2018-02-03T09:04:26.452Z,96907.37
2018-02-03T09:06:56.521Z,96910.07
2018-02-03T09:09:25.037Z,96905.02
2018-02-03T09:12:06.294Z,96903.84
2018-02-03T09:14:34.849Z,96912.23
2018-02-03T09:17:03.414Z,96905.73
2018-02-03T09:19:32.086Z,96909.67
2018-02-03T09:22:01.058Z,96917.09
2018-02-03T09:24:29.662Z,96918.97
2018-02-03T09:26:58.813Z,96923.03
2018-02-03T09:29:27.488Z,96918.77
2018-02-03T09:31:56.304Z,96908.44
2018-02-03T09:34:26.088Z,96917.81
2018-02-03T09:36:54.679Z,96908.25
2018-02-03T09:39:23.419Z,96914.91
2018-02-03T09:41:52.750Z,96919.48
2018-02-03T09:44:21.898Z,96919.91
2018-02-03T09:46:50.610Z,96919.37
2018-02-03T09:49:19.130Z,96915.77
2018-02-03T09:51:48.509Z,96909.58
2018-02-03T09:54:17.131Z,96913.97
2018-02-03T09:56:45.692Z,96914.11
2018-02-03T09:59:15.029Z,96909.08
2018-02-03T10:01:43.596Z,96903.44
2018-02-03T10:04:12.530Z,96907.17
2018-02-03T10:06:42.510Z,96912.09
2018-02-03T10:09:12.124Z,96908.33
2018-02-03T10:11:41.872Z,96908.95
2018-02-03T10:14:11.745Z,96902.42
2018-02-03T10:16:41.041Z,96909.52
2018-02-03T10:19:11.199Z,96911.92
2018-02-03T10:21:42.638Z,96917.02
2018-02-03T10:24:12.119Z,96910.05
2018-02-03T10:26:40.637Z,96911.23
2018-02-03T10:29:09.307Z,96906.72
2018-02-03T10:31:38.429Z,96908.49
2018-02-03T10:34:07.752Z,96905.83
2018-02-03T10:36:36.653Z,96894.27
2018-02-03T10:39:05.333Z,96890.14
2018-02-03T10:41:34.035Z,96892.59
2018-02-03T10:44:02.816Z,96901.27
2018-02-03T10:46:31.330Z,96895.31
2018-02-03T10:49:00.991Z,96886.94
2018-02-03T10:51:32.181Z,96888.91
2018-02-03T10:54:01.001Z,96901.39
2018-02-03T10:56:29.970Z,96885.41
2018-02-03T10:58:58.889Z,96885.16
2018-02-03T11:01:27.983Z,96871.95
2018-02-03T11:03:58.779Z,96881.55
2018-02-03T11:06:27.589Z,96882.70
2018-02-03T11:08:57.081Z,96872.12
2018-02-03T11:11:26.089Z,96874.81
2018-02-03T11:13:55.679Z,96865.28
2018-02-03T11:16:24.512Z,96869.00
2018-02-03T11:18:54.073Z,96861.77
2018-02-03T11:21:22.795Z,96868.23
2018-02-03T11:23:52.238Z,96863.61
2018-02-03T11:26:21.398Z,96858.36
2018-02-03T11:28:50.949Z,96861.62
2018-02-03T11:31:19.693Z,96855.61
2018-02-03T11:33:48.283Z,96854.37
2018-02-03T11:36:18.159Z,96857.40
2018-02-03T11:38:47.944Z,96851.55
2018-02-03T11:41:16.804Z,96845.09
2018-02-03T11:43:46.294Z,96846.48
2018-02-03T11:46:17.264Z,96848.39
2018-02-03T11:48:46.847Z,96849.86
2018-02-03T11:51:15.778Z,96849.52
2018-02-03T11:53:44.646Z,96846.30
2018-02-03T11:56:16.103Z,96847.14
2018-02-03T11:58:45.114Z,96851.80
2018-02-03T12:01:14.243Z,96844.50
2018-02-03T12:03:43.624Z,96845.35
2018-02-03T12:06:14.568Z,96853.41
2018-02-03T12:08:43.209Z,96852.42
2018-02-03T12:11:12.889Z,96846.86
2018-02-03T12:13:43.256Z,96848.58
2018-02-03T12:16:13.160Z,96849.71
2018-02-03T12:18:41.571Z,96845.34
2018-02-03T12:21:10.651Z,96856.41
2018-02-03T12:23:38.936Z,96849.93
2018-02-03T12:26:08.474Z,96846.63
2018-02-03T12:28:38.180Z,96843.33
2018-02-03T12:31:07.163Z,96836.70
2018-02-03T12:33:35.733Z,96831.13
2018-02-03T12:36:04.896Z,96831.52
2018-02-03T12:38:34.093Z,96835.66
2018-02-03T12:41:02.589Z,96826.05
2018-02-03T12:43:31.020Z,96828.25
2018-02-03T12:45:59.485Z,96820.81
2018-02-03T12:48:29.136Z,96822.42
2018-02-03T12:50:57.565Z,96817.11
2018-02-03T12:53:26.660Z,96817.66
2018-02-03T12:55:55.704Z,96820.48
2018-02-03T12:58:24.607Z,96811.59
2018-02-03T13:00:53.344Z,96805.75
2018-02-03T13:03:22.361Z,96797.55
2018-02-03T13:05:51.651Z,96808.61
2018-02-03T13:08:21.705Z,96810.77
2018-02-03T13:10:51.254Z,96814.10
2018-02-03T13:13:20.245Z,96794.39
2018-02-03T13:15:49.136Z,96803.81
2018-02-03T13:18:18.627Z,96791.65
2018-02-03T13:20:49.712Z,96789.63
2018-02-03T13:23:19.604Z,96798.10
2018-02-03T13:25:48.542Z,96793.96
2018-02-03T13:28:19.807Z,96784.34
2018-02-03T13:30:49.558Z,96785.73
2018-02-03T13:33:19.880Z,96781.61
2018-02-03T13:35:49.041Z,96779.95
2018-02-03T13:38:22.469Z,96788.50
2018-02-03T13:40:51.817Z,96785.05
2018-02-03T13:43:22.849Z,96793.59
2018-02-03T13:45:52.212Z,96785.39
2018-02-03T13:48:21.111Z,96779.45
2018-02-03T13:50:50.345Z,96785.11
2018-02-03T13:53:19.170Z,96776.64
2018-02-03T13:55:47.873Z,96779.17
2018-02-03T13:58:16.637Z,96778.69
2018-02-03T14:00:45.630Z,96778.88
2018-02-03T14:03:15.762Z,96779.90
2018-02-03T14:05:44.795Z,96777.63
2018-02-03T14:08:13.557Z,96778.61
2018-02-03T14:10:43.475Z,96776.03
2018-02-03T14:13:12.453Z,96777.06
2018-02-03T14:15:41.506Z,96787.09
2018-02-03T14:18:11.163Z,96785.59
2018-02-03T14:20:40.464Z,96786.19
2018-02-03T14:23:10.086Z,96788.83
2018-02-03T14:25:39.069Z,96786.27
2018-02-03T14:28:07.898Z,96792.03
2018-02-03T14:30:37.872Z,96783.96
2018-02-03T14:33:07.660Z,96789.15
2018-02-03T14:35:39.634Z,96790.22
2018-02-03T14:38:10.610Z,96790.00
2018-02-03T14:40:40.416Z,96791.63
2018-02-03T14:43:09.366Z,96795.80
2018-02-03T14:45:39.630Z,96796.97
2018-02-03T14:48:08.360Z,96796.62
2018-02-03T14:50:38.690Z,96793.07
2018-02-03T14:53:07.920Z,96804.47
2018-02-03T14:55:38.739Z,96795.47
2018-02-03T14:58:07.818Z,96800.17
2018-02-03T15:00:37.905Z,96814.98
2018-02-03T15:03:07.158Z,96798.96
2018-02-03T15:05:36.623Z,96802.18
2018-02-03T15:08:06.344Z,96804.59
2018-02-03T15:10:35.526Z,96802.84
2018-02-03T15:13:05.477Z,96806.00
2018-02-03T15:15:34.362Z,96815.07
2018-02-03T15:18:03.998Z,96807.14
2018-02-03T15:20:32.535Z,96798.00
2018-02-03T15:23:01.290Z,96804.91
2018-02-03T15:25:30.340Z,96807.79
2018-02-03T15:28:00.264Z,96808.85
2018-02-03T15:30:29.344Z,96799.45
2018-02-03T15:32:58.536Z,96809.41
2018-02-03T15:35:27.475Z,96806.00
2018-02-03T15:37:57.265Z,96811.12
2018-02-03T15:40:26.235Z,96814.97
2018-02-03T15:42:55.010Z,96811.61
2018-02-03T15:45:25.063Z,96812.78
2018-02-03T15:47:53.923Z,96821.66
2018-02-03T15:50:24.033Z,96817.13
2018-02-03T15:52:53.367Z,96822.48
2018-02-03T15:55:23.474Z,96825.17
2018-02-03T15:57:53.237Z,96824.02
2018-02-03T16:00:23.480Z,96830.65
2018-02-03T16:02:53.974Z,96826.95
2018-02-03T16:05:23.275Z,96839.06
2018-02-03T16:07:52.425Z,96840.22
2018-02-03T16:10:22.789Z,96839.56
2018-02-03T16:12:51.632Z,96841.58
2018-02-03T16:15:21.118Z,96844.68
2018-02-03T16:17:50.884Z,96848.51
2018-02-03T16:20:20.938Z,96845.17
2018-02-03T16:22:50.654Z,96841.98
2018-02-03T16:25:19.235Z,96846.50
2018-02-03T16:27:51.370Z,96849.12
2018-02-03T16:30:19.977Z,96855.80
2018-02-03T16:32:49.043Z,96845.23
2018-02-03T16:35:17.444Z,96846.95
2018-02-03T16:37:47.623Z,96845.22
2018-02-03T16:40:27.926Z,96854.59
2018-02-03T16:43:06.442Z,96859.50
2018-02-03T16:45:38.361Z,96863.70
2018-02-03T16:48:08.167Z,96864.45
2018-02-03T16:50:40.470Z,96859.40
2018-02-03T16:53:10.573Z,96859.53
2018-02-03T16:55:39.589Z,96871.88
2018-02-03T16:58:10.328Z,96865.25
2018-02-03T17:00:40.404Z,96869.09
2018-02-03T17:03:11.602Z,96867.57
2018-02-03T17:05:41.816Z,96864.70
2018-02-03T17:08:11.343Z,96858.32
2018-02-03T17:10:40.968Z,96863.73
2018-02-03T17:13:10.438Z,96867.87
2018-02-03T17:15:40.474Z,96873.34
2018-02-03T17:18:10.818Z,96877.09
2018-02-03T17:20:41.046Z,96878.53
2018-02-03T17:23:10.139Z,96878.29
2018-02-03T17:25:38.931Z,96876.48
2018-02-03T17:28:09.138Z,96879.06
2018-02-03T17:30:38.002Z,96883.16
2018-02-03T17:33:06.718Z,96881.33
2018-02-03T17:35:35.332Z,96885.56
2018-02-03T17:38:09.686Z,96888.80
2018-02-03T17:40:38.346Z,96883.46
2018-02-03T17:43:09.373Z,96892.09
2018-02-03T17:45:43.533Z,96881.33
2018-02-03T17:48:11.860Z,96875.41
2018-02-03T17:50:41.298Z,96872.19
2018-02-03T17:53:09.603Z,96883.86
2018-02-03T17:55:43.321Z,96871.45
2018-02-03T17:58:11.607Z,96878.59
2018-02-03T18:00:40.655Z,96877.81
2018-02-03T18:03:08.919Z,96876.06
2018-02-03T18:05:37.346Z,96882.58
2018-02-03T18:08:05.625Z,96884.09
2018-02-03T18:10:34.078Z,96881.36
2018-02-03T18:13:02.385Z,96879.48
2018-02-03T18:15:30.632Z,96883.26
2018-02-03T18:17:58.933Z,96887.91
2018-02-03T18:20:27.977Z,96882.65
2018-02-03T18:22:56.288Z,96888.97
2018-02-03T18:25:24.510Z,96884.91
2018-02-03T18:27:53.577Z,96884.89
2018-02-03T18:30:21.887Z,96892.02
2018-02-03T18:32:51.019Z,96894.31
2018-02-03T18:35:20.040Z,96894.51
2018-02-03T18:37:49.086Z,96901.98
2018-02-03T18:40:17.591Z,96898.27
2018-02-03T18:42:45.861Z,96897.27
2018-02-03T18:45:32.088Z,96900.24
2018-02-03T18:48:00.374Z,96899.99
2018-02-03T18:50:29.400Z,96902.45
2018-02-03T18:52:59.623Z,96905.69
2018-02-03T18:55:28.680Z,96907.20
2018-02-03T18:57:57.708Z,96920.17
2018-02-03T19:00:25.952Z,96909.88
2018-02-03T19:02:54.254Z,96914.37
2018-02-03T19:05:23.321Z,96904.01
2018-02-03T19:07:51.695Z,96905.77
2018-02-03T19:10:20.729Z,96909.59
2018-02-03T19:12:49.007Z,96909.59
2018-02-03T19:15:17.269Z,96913.14
2018-02-03T19:17:45.788Z,96915.53
2018-02-03T19:20:14.089Z,96921.39
2018-02-03T19:22:42.370Z,96920.61
2018-02-03T19:25:10.616Z,96917.61
2018-02-03T19:27:38.910Z,96921.96
2018-02-03T19:30:07.300Z,96924.85
2018-02-03T19:32:35.676Z,96916.50
2018-02-03T19:35:04.870Z,96928.59
2018-02-03T19:37:33.178Z,96933.53
2018-02-03T19:40:01.443Z,96930.51
2018-02-03T19:42:29.803Z,96929.06
2018-02-03T19:44:58.865Z,96933.91
2018-02-03T19:47:27.229Z,96930.44
2018-02-03T19:49:55.530Z,96937.58
2018-02-03T19:52:23.860Z,96938.88
2018-02-03T19:54:52.243Z,96931.02
2018-02-03T19:57:20.516Z,96930.56
2018-02-03T19:59:49.612Z,96932.61
2018-02-03T20:02:17.879Z,96936.12
2018-02-03T20:04:46.157Z,96937.26
2018-02-03T20:07:14.424Z,96930.32
2018-02-03T20:09:42.718Z,96940.21
2018-02-03T20:12:10.997Z,96942.81
2018-02-03T20:14:39.353Z,96939.69
2018-02-03T20:17:07.676Z,96944.53
2018-02-03T20:19:35.998Z,96945.51
2018-02-03T20:22:04.285Z,96953.72
2018-02-03T20:24:32.613Z,96951.77
2018-02-03T20:27:00.976Z,96953.19
2018-02-03T20:29:29.959Z,96952.87
2018-02-03T20:31:58.219Z,96966.06
2018-02-03T20:34:26.495Z,96958.28
2018-02-03T20:36:55.544Z,96968.45
2018-02-03T20:39:23.884Z,96971.28
2018-02-03T20:41:52.899Z,96970.75
2018-02-03T20:44:22.880Z,96969.89
2018-02-03T20:46:51.204Z,96987.47
2018-02-03T20:49:19.573Z,96968.97
2018-02-03T20:51:47.854Z,96971.59
2018-02-03T20:54:16.182Z,96964.34
2018-02-03T20:56:45.297Z,96966.23
2018-02-03T20:59:13.610Z,96970.45
2018-02-03T21:01:41.927Z,96976.98
2018-02-03T21:04:10.210Z,96977.62
2018-02-03T21:06:38.554Z,96971.66
2018-02-03T21:09:07.704Z,96983.17
2018-02-03T21:11:36.164Z,96977.52
2018-02-03T21:14:05.663Z,96983.98
2018-02-03T21:16:34.165Z,96987.84
2018-02-03T21:19:02.544Z,96992.26
2018-02-03T21:21:30.828Z,96991.15
2018-02-03T21:23:59.096Z,96986.53
2018-02-03T21:26:27.347Z,96989.81
2018-02-03T21:28:55.599Z,96998.95
2018-02-03T21:31:23.894Z,97000.72
2018-02-03T21:33:52.252Z,96997.77
2018-02-03T21:36:20.580Z,96993.29
2018-02-03T21:38:48.852Z,96996.83
2018-02-03T21:41:17.112Z,97002.76
2018-02-03T21:43:45.411Z,97008.47
2018-02-03T21:46:13.699Z,97005.84
2018-02-03T21:48:41.940Z,97004.13
2018-02-03T21:51:10.269Z,97006.92
2018-02-03T21:53:38.522Z,97011.23
2018-02-03T21:56:07.013Z,97011.69
2018-02-03T21:58:35.322Z,97015.89
2018-02-03T22:01:03.721Z,97012.86
2018-02-03T22:03:32.015Z,97017.98
2018-02-03T22:06:00.351Z,97017.05
2018-02-03T22:08:28.642Z,97020.71
2018-02-03T22:10:56.962Z,97013.23
2018-02-03T22:13:26.079Z,97027.81
2018-02-03T22:15:54.399Z,97028.20
2018-02-03T22:18:22.707Z,97030.86
2018-02-03T22:20:51.033Z,97032.68
2018-02-03T22:23:20.051Z,97036.04
2018-02-03T22:25:48.320Z,97036.64
2018-02-03T22:28:17.345Z,97038.44
2018-02-03T22:30:45.671Z,97045.78
2018-02-03T22:33:14.742Z,97042.17
2018-02-03T22:35:43.025Z,97038.61
2018-02-03T22:38:12.692Z,97044.81
2018-02-03T22:40:40.961Z,97043.39
2018-02-03T22:43:09.343Z,97045.33
2018-02-03T22:45:38.428Z,97047.39
2018-02-03T22:48:06.768Z,97062.35
2018-02-03T22:50:35.172Z,97068.91
2018-02-03T22:53:03.558Z,97065.81
2018-02-03T22:55:31.881Z,97071.23
2018-02-03T22:58:00.182Z,97075.36
2018-02-03T23:00:28.448Z,97078.84
2018-02-03T23:02:59.448Z,97083.98
2018-02-03T23:05:27.686Z,97081.56
2018-02-03T23:07:55.963Z,97083.77
2018-02-03T23:10:24.279Z,97087.30
2018-02-03T23:12:53.420Z,97098.42
2018-02-03T23:15:21.698Z,97095.42
2018-02-03T23:17:49.999Z,97104.50
2018-02-03T23:20:18.254Z,97102.55
2018-02-03T23:22:46.511Z,97112.35
2018-02-03T23:25:14.778Z,97099.02
2018-02-03T23:27:43.821Z,97114.66
2018-02-03T23:30:13.117Z,97112.47
2018-02-03T23:32:41.382Z,97107.82
2018-02-03T23:35:09.689Z,97113.90
2018-02-03T23:37:38.044Z,97117.97
2018-02-03T23:40:07.032Z,97118.42
2018-02-03T23:42:36.147Z,97118.38
2018-02-03T23:45:05.359Z,97121.56
2018-02-03T23:47:33.894Z,97110.29
2018-02-03T23:50:03.230Z,97117.39
2018-02-03T23:52:31.507Z,97118.78
2018-02-03T23:55:00.519Z,97114.19
2018-02-03T23:57:28.780Z,97125.02
2018-02-03T23:59:57.043Z,97127.02
